Time;durP1;ratioP1;P1;durP2;ratioP2;P2;SDS_P1;SDS_P2;PMS_P1;PMS_P2;Temp;Humidity;BMP_temperature;BMP_pressure;BME280_temperature;BME280_humidity;BME280_pressure;Samples;Min_cycle;Max_cycle;Signal;HPM_P1;HPM_P2
2022/03/30 00:00:14;;;;;;;15.52;10.27;;;14.20;81.10;;;;;;5075391;28;20082;-44
2022/03/30 00:02:40;;;;;;;13.38;9.10;;;14.20;81.30;;;;;;5077284;28;20488;-44
2022/03/30 00:05:06;;;;;;;15.07;10.07;;;14.20;81.10;;;;;;5075478;28;20025;-44
2022/03/30 00:07:32;;;;;;;17.45;9.32;;;14.30;81.30;;;;;;5072352;28;20067;-45
2022/03/30 00:09:59;;;;;;;14.75;10.10;;;14.20;81.30;;;;;;5078407;28;20021;-44
2022/03/30 00:12:25;;;;;;;13.15;9.38;;;14.30;81.10;;;;;;5073851;28;20419;-43
2022/03/30 00:14:51;;;;;;;15.15;9.60;;;14.30;81.10;;;;;;5073420;28;20036;-44
2022/03/30 00:17:18;;;;;;;14.25;9.95;;;14.30;80.90;;;;;;5076274;28;20032;-44
2022/03/30 00:19:44;;;;;;;14.77;9.68;;;14.30;80.90;;;;;;5075857;28;20032;-44
2022/03/30 00:22:10;;;;;;;15.82;10.10;;;14.20;80.60;;;;;;5072202;28;20057;-44
2022/03/30 00:24:38;;;;;;;13.60;9.75;;;14.20;80.80;;;;;;5074940;28;20027;-43
2022/03/30 00:27:06;;;;;;;14.82;9.05;;;14.20;80.50;;;;;;5073070;28;20032;-42
2022/03/30 00:29:32;;;;;;;16.60;9.30;;;14.20;80.60;;;;;;5072451;28;20051;-45
2022/03/30 00:31:58;;;;;;;16.80;9.63;;;14.20;80.70;;;;;;5075398;28;20523;-45
2022/03/30 00:34:24;;;;;;;16.52;10.00;;;14.20;80.80;;;;;;5074593;28;20123;-43
2022/03/30 00:36:49;;;;;;;16.33;10.63;;;14.20;80.80;;;;;;5076629;28;20103;-44
2022/03/30 00:39:17;;;;;;;15.25;9.88;;;14.20;80.90;;;;;;5076805;28;20487;-43
2022/03/30 00:41:44;;;;;;;19.55;10.10;;;14.10;80.90;;;;;;5075566;28;20422;-42
2022/03/30 00:44:12;;;;;;;17.77;9.60;;;14.10;81.00;;;;;;5076743;28;20035;-44
2022/03/30 00:46:42;;;;;;;15.90;9.88;;;14.10;81.10;;;;;;5076591;28;20032;-44
2022/03/30 00:49:07;;;;;;;15.43;9.77;;;14.00;81.40;;;;;;5076765;28;20029;-44
2022/03/30 00:51:34;;;;;;;15.25;10.00;;;14.00;81.50;;;;;;5091299;28;20460;-43
2022/03/30 00:54:00;;;;;;;17.65;9.48;;;14.00;81.10;;;;;;5076664;28;20032;-45
2022/03/30 00:56:28;;;;;;;14.52;9.60;;;14.00;80.90;;;;;;5076365;28;20067;-43
2022/03/30 00:58:54;;;;;;;16.00;9.52;;;14.10;80.60;;;;;;5076650;28;20495;-46
2022/03/30 01:01:21;;;;;;;14.00;9.07;;;14.10;80.50;;;;;;5076441;28;20033;-42
2022/03/30 01:03:47;;;;;;;12.18;8.50;;;14.10;80.30;;;;;;5076305;28;20045;-43
2022/03/30 01:06:13;;;;;;;12.30;8.55;;;14.10;80.40;;;;;;5091269;28;20161;-43
2022/03/30 01:08:39;;;;;;;13.63;8.98;;;14.00;80.40;;;;;;5076466;28;20025;-43
2022/03/30 01:11:05;;;;;;;16.70;8.23;;;14.10;80.40;;;;;;5076336;28;20036;-43
2022/03/30 01:13:33;;;;;;;17.90;8.25;;;14.00;80.50;;;;;;5076197;28;20028;-43
2022/03/30 01:15:59;;;;;;;12.88;7.53;;;14.00;80.60;;;;;;5076509;28;20079;-43
2022/03/30 01:18:24;;;;;;;16.23;7.70;;;14.00;80.60;;;;;;5076281;28;20027;-44
2022/03/30 01:20:50;;;;;;;11.27;7.03;;;14.00;80.60;;;;;;5076267;28;20032;-43
2022/03/30 01:23:17;;;;;;;17.02;7.63;;;14.00;80.20;;;;;;5076320;28;20089;-42
2022/03/30 01:25:43;;;;;;;17.98;8.73;;;14.00;80.10;;;;;;5075892;28;20489;-43
2022/03/30 01:28:09;;;;;;;20.95;8.27;;;14.10;79.90;;;;;;5076088;28;20105;-43
2022/03/30 01:33:20;;;;;;;27.63;11.75;;;14.20;80.00;;;;;;5076190;28;20024;-44
2022/03/30 01:35:46;;;;;;;46.80;19.35;;;14.10;80.00;;;;;;5073644;28;20044;-43
2022/03/30 01:38:12;;;;;;;46.60;17.20;;;14.20;80.10;;;;;;5075847;28;20077;-44
2022/03/30 01:40:38;;;;;;;28.10;10.93;;;14.20;79.90;;;;;;5075669;28;20025;-44
2022/03/30 01:43:04;;;;;;;15.95;8.85;;;14.30;79.70;;;;;;5075700;28;20483;-44
2022/03/30 01:45:30;;;;;;;36.00;15.80;;;14.30;79.50;;;;;;5073480;28;20039;-44
2022/03/30 01:48:01;;;;;;;33.83;16.10;;;14.30;79.50;;;;;;5076092;28;20031;-42
2022/03/30 01:50:29;;;;;;;19.17;10.02;;;14.30;79.70;;;;;;5075688;28;20028;-44
2022/03/30 01:52:55;;;;;;;20.58;9.65;;;14.20;79.80;;;;;;5075437;28;20107;-45
2022/03/30 01:55:21;;;;;;;18.70;7.70;;;14.10;80.10;;;;;;5075386;28;20372;-44
2022/03/30 01:57:47;;;;;;;10.55;5.65;;;14.10;80.40;;;;;;5075827;28;20035;-43
2022/03/30 02:00:15;;;;;;;12.70;7.10;;;14.00;80.60;;;;;;5075433;28;20034;-44
2022/03/30 02:02:41;;;;;;;14.95;6.63;;;14.10;80.70;;;;;;5089722;28;20044;-44
2022/03/30 02:05:09;;;;;;;10.65;5.53;;;14.10;80.70;;;;;;5075480;28;20056;-43
2022/03/30 02:07:36;;;;;;;13.30;6.05;;;14.10;80.60;;;;;;5039794;28;20033;-44
2022/03/30 02:10:04;;;;;;;10.35;4.88;;;14.00;80.50;;;;;;5075118;28;20039;-43
2022/03/30 02:12:30;;;;;;;15.13;5.10;;;14.00;80.50;;;;;;5073216;28;20074;-44
2022/03/30 02:14:57;;;;;;;25.98;8.02;;;14.10;80.60;;;;;;5075214;28;20020;-44
2022/03/30 02:17:24;;;;;;;14.63;5.10;;;14.00;80.80;;;;;;5075381;28;20419;-44
2022/03/30 02:19:50;;;;;;;15.88;5.60;;;14.00;80.90;;;;;;5074918;28;20075;-42
2022/03/30 02:22:15;;;;;;;11.07;5.32;;;13.90;81.10;;;;;;5072649;28;20053;-44
2022/03/30 02:24:41;;;;;;;13.18;6.13;;;13.80;81.30;;;;;;5072907;28;20070;-45
2022/03/30 02:27:07;;;;;;;12.43;4.40;;;13.70;81.30;;;;;;5075423;28;20095;-42
2022/03/30 02:29:34;;;;;;;10.60;4.78;;;13.70;81.40;;;;;;5075115;28;20440;-42
2022/03/30 02:32:01;;;;;;;13.10;5.25;;;13.60;81.80;;;;;;5074773;28;20452;-44
2022/03/30 02:34:27;;;;;;;10.50;4.13;;;13.60;81.90;;;;;;5074806;28;20368;-44
2022/03/30 02:36:53;;;;;;;12.20;4.43;;;13.50;82.60;;;;;;5074781;28;20068;-44
2022/03/30 02:39:19;;;;;;;12.85;4.63;;;13.50;82.40;;;;;;5072584;28;20036;-44
2022/03/30 02:41:46;;;;;;;15.98;5.25;;;13.40;82.40;;;;;;5089682;28;20156;-44
2022/03/30 02:44:13;;;;;;;13.32;4.43;;;13.40;82.10;;;;;;5074269;28;20032;-45
2022/03/30 02:46:39;;;;;;;15.73;7.03;;;13.40;82.10;;;;;;5074412;28;20497;-44
2022/03/30 02:49:05;;;;;;;15.55;5.85;;;13.50;83.00;;;;;;5089396;28;20151;-44
2022/03/30 02:51:31;;;;;;;15.20;4.25;;;13.50;82.10;;;;;;5089190;28;20064;-43
2022/03/30 02:53:57;;;;;;;16.40;4.35;;;13.50;82.10;;;;;;5073764;28;20024;-45
2022/03/30 02:56:23;;;;;;;22.83;5.00;;;13.50;82.20;;;;;;5074318;28;20035;-43
2022/03/30 02:58:49;;;;;;;15.98;5.15;;;13.50;81.90;;;;;;5074415;28;20029;-42
2022/03/30 03:01:15;;;;;;;20.52;6.53;;;13.50;81.80;;;;;;5074489;28;20070;-44
2022/03/30 03:03:41;;;;;;;14.23;5.05;;;13.50;82.00;;;;;;5074293;28;20104;-42
2022/03/30 03:06:06;;;;;;;14.00;4.63;;;13.40;82.20;;;;;;5071792;28;20033;-44
2022/03/30 03:08:32;;;;;;;11.32;5.18;;;13.40;82.20;;;;;;5074083;28;20537;-44
2022/03/30 03:10:58;;;;;;;23.33;7.57;;;13.40;82.20;;;;;;5088891;28;20434;-44
2022/03/30 03:13:25;;;;;;;14.00;6.57;;;13.50;82.00;;;;;;5073748;28;20035;-41
2022/03/30 03:15:51;;;;;;;14.77;5.00;;;13.30;82.00;;;;;;5073960;28;20491;-43
2022/03/30 03:18:18;;;;;;;17.33;5.30;;;13.00;85.10;;;;;;5071419;28;20040;-42
2022/03/30 03:20:45;;;;;;;17.08;4.97;;;12.70;84.40;;;;;;5071303;28;20106;-45
2022/03/30 03:23:12;;;;;;;12.77;4.85;;;12.50;84.80;;;;;;5071442;28;20058;-44
2022/03/30 03:25:40;;;;;;;10.73;5.22;;;12.40;85.10;;;;;;5071440;28;20388;-45
2022/03/30 03:28:10;;;;;;;15.05;4.85;;;12.30;85.20;;;;;;5070831;28;20036;-44
2022/03/30 03:30:37;;;;;;;14.52;5.70;;;12.30;85.60;;;;;;5071447;28;20036;-44
2022/03/30 03:33:04;;;;;;;16.33;5.35;;;12.10;86.30;;;;;;5051344;28;20037;-42
2022/03/30 03:35:30;;;;;;;17.80;5.28;;;12.10;86.50;;;;;;5051001;28;20053;-43
2022/03/30 03:37:56;;;;;;;23.38;6.18;;;12.30;85.80;;;;;;5034512;28;20033;-43
2022/03/30 03:40:22;;;;;;;25.50;6.85;;;12.50;85.20;;;;;;5051165;28;20385;-43
2022/03/30 03:42:48;;;;;;;20.92;6.15;;;12.70;84.40;;;;;;5051178;28;20035;-42
2022/03/30 03:45:15;;;;;;;28.17;6.75;;;12.80;84.00;;;;;;5051146;28;20484;-43
2022/03/30 03:47:41;;;;;;;29.58;7.03;;;12.90;83.80;;;;;;5017861;28;20369;-43
2022/03/30 03:50:09;;;;;;;22.35;7.18;;;13.00;83.40;;;;;;5051028;28;20029;-43
2022/03/30 03:52:34;;;;;;;24.20;8.52;;;13.10;83.30;;;;;;5051029;28;20037;-43
2022/03/30 03:55:00;;;;;;;22.23;11.32;;;13.20;83.20;;;;;;5050915;28;20036;-44
2022/03/30 03:57:26;;;;;;;23.95;9.98;;;13.20;83.20;;;;;;5050886;28;20053;-43
2022/03/30 03:59:52;;;;;;;34.58;10.75;;;13.30;83.10;;;;;;5051071;28;20124;-43
2022/03/30 04:02:18;;;;;;;18.20;6.43;;;13.30;83.00;;;;;;5050992;28;20453;-44
2022/03/30 04:04:44;;;;;;;16.15;4.65;;;13.30;83.10;;;;;;5050971;28;20067;-44
2022/03/30 04:07:10;;;;;;;28.90;5.97;;;13.30;83.00;;;;;;5051794;28;20059;-44
2022/03/30 04:09:36;;;;;;;19.10;5.25;;;13.30;83.20;;;;;;5057680;28;20040;-42
2022/03/30 04:12:03;;;;;;;22.67;5.88;;;13.40;83.30;;;;;;5076530;28;20037;-42
2022/03/30 04:14:29;;;;;;;14.40;3.75;;;13.30;83.30;;;;;;5040612;28;20048;-43
2022/03/30 04:16:54;;;;;;;11.80;4.53;;;13.30;83.00;;;;;;5076333;28;20396;-44
2022/03/30 04:19:20;;;;;;;12.95;4.25;;;13.30;83.10;;;;;;5067671;28;20028;-43
2022/03/30 04:21:46;;;;;;;15.15;4.70;;;13.30;83.20;;;;;;5056978;28;20489;-44
2022/03/30 04:24:12;;;;;;;21.48;6.35;;;13.30;83.00;;;;;;5071843;28;20473;-44
2022/03/30 04:26:39;;;;;;;21.95;6.63;;;13.30;83.00;;;;;;5073227;28;20113;-42
2022/03/30 04:29:05;;;;;;;17.00;6.05;;;13.30;83.00;;;;;;5077011;28;20082;-43
2022/03/30 04:31:32;;;;;;;16.80;5.28;;;13.30;83.20;;;;;;5051167;28;20060;-44
2022/03/30 04:33:58;;;;;;;20.15;5.70;;;13.30;83.10;;;;;;5067589;28;20036;-43
2022/03/30 04:36:23;;;;;;;18.80;5.25;;;13.30;83.00;;;;;;5076517;28;20040;-43
2022/03/30 04:38:50;;;;;;;13.27;5.07;;;13.40;82.80;;;;;;5076867;28;20032;-44
2022/03/30 04:41:15;;;;;;;34.20;17.02;;;13.10;82.90;;;;;;5076839;28;20116;-44
2022/03/30 04:43:41;;;;;;;34.83;13.93;;;13.20;83.20;;;;;;5076093;28;20052;-44
2022/03/30 04:46:08;;;;;;;29.40;9.73;;;13.10;83.20;;;;;;5058549;28;20029;-43
2022/03/30 04:48:37;;;;;;;39.20;10.68;;;13.20;83.10;;;;;;5056419;28;20086;-43
2022/03/30 04:51:03;;;;;;;32.20;8.43;;;13.30;82.40;;;;;;5072404;28;20073;-44
2022/03/30 04:53:30;;;;;;;24.48;7.07;;;13.30;82.90;;;;;;5069279;28;20786;-44
2022/03/30 04:55:55;;;;;;;19.80;6.35;;;13.20;82.90;;;;;;5061467;28;20556;-44
2022/03/30 04:58:22;;;;;;;18.20;6.72;;;13.20;83.20;;;;;;5056639;28;20117;-42
2022/03/30 05:00:48;;;;;;;16.13;4.13;;;13.10;83.40;;;;;;5060371;28;20070;-43
2022/03/30 05:03:14;;;;;;;17.50;5.22;;;13.00;83.70;;;;;;5074087;28;20025;-43
2022/03/30 05:05:40;;;;;;;15.95;4.60;;;12.80;84.30;;;;;;5075294;28;20031;-47
2022/03/30 05:08:06;;;;;;;16.38;6.70;;;12.70;84.90;;;;;;5075147;28;20028;-47
2022/03/30 05:10:32;;;;;;;19.27;4.45;;;12.60;84.90;;;;;;5070888;28;20016;-45
2022/03/30 05:13:02;;;;;;;15.65;4.43;;;12.60;86.10;;;;;;5062476;28;20503;-43
2022/03/30 05:15:28;;;;;;;16.17;5.30;;;12.50;86.50;;;;;;5065081;28;20096;-46
2022/03/30 05:17:54;;;;;;;16.88;4.15;;;12.50;86.80;;;;;;5062662;28;20507;-45
2022/03/30 05:20:21;;;;;;;15.13;4.85;;;12.50;87.30;;;;;;5063845;28;20036;-43
2022/03/30 05:22:47;;;;;;;18.48;4.53;;;12.50;87.90;;;;;;5062155;28;20045;-44
2022/03/30 05:25:14;;;;;;;7.30;3.35;;;12.60;87.90;;;;;;5066650;28;20041;-42
2022/03/30 05:27:40;;;;;;;12.48;4.47;;;12.50;88.30;;;;;;5061257;28;20087;-46
2022/03/30 05:30:08;;;;;;;15.02;4.82;;;12.60;89.10;;;;;;5054508;28;20107;-45
2022/03/30 05:32:35;;;;;;;18.10;4.43;;;12.60;89.20;;;;;;5026096;28;20052;-45
2022/03/30 05:35:01;;;;;;;24.25;5.25;;;12.70;89.50;;;;;;5063247;28;20129;-46
2022/03/30 05:37:27;;;;;;;14.65;5.38;;;12.80;89.80;;;;;;5064772;28;20404;-45
2022/03/30 05:39:53;;;;;;;15.52;5.10;;;13.00;89.40;;;;;;5053326;28;20037;-46
2022/03/30 05:42:23;;;;;;;19.73;5.05;;;13.10;89.10;;;;;;5053364;28;20073;-47
2022/03/30 05:44:52;;;;;;;18.83;5.03;;;13.30;88.80;;;;;;5053150;28;20116;-45
2022/03/30 05:47:17;;;;;;;10.00;3.97;;;13.30;88.70;;;;;;5053146;28;20037;-43
2022/03/30 05:49:43;;;;;;;18.65;5.35;;;13.40;88.50;;;;;;5053143;28;20350;-42
2022/03/30 05:52:10;;;;;;;15.65;4.63;;;13.50;88.20;;;;;;5050336;28;20051;-42
2022/03/30 05:54:37;;;;;;;14.05;4.53;;;13.60;88.60;;;;;;5055571;28;20476;-46
2022/03/30 05:57:05;;;;;;;13.52;4.90;;;13.70;88.20;;;;;;5055599;28;20385;-44
2022/03/30 05:59:42;;;;;;;16.77;5.03;;;13.80;87.90;;;;;;5055455;28;20037;-42
2022/03/30 06:02:11;;;;;;;16.80;4.68;;;13.90;87.30;;;;;;5070066;28;20037;-44
2022/03/30 06:04:38;;;;;;;14.30;4.82;;;14.00;87.30;;;;;;5055135;28;20037;-42
2022/03/30 06:07:05;;;;;;;16.85;4.60;;;14.10;87.40;;;;;;5053721;28;20037;-45
2022/03/30 06:09:33;;;;;;;14.20;4.65;;;14.20;87.10;;;;;;5072575;28;20028;-45
2022/03/30 06:12:06;;;;;;;29.40;6.85;;;;;;;;;;5074147;28;20373;-43
2022/03/30 06:14:32;;;;;;;;;;;;;;;;;;5072112;28;20029;-45
2022/03/30 06:16:58;;;;;;;25.25;7.53;;;15.10;87.70;;;;;;5090193;28;19904;-45
2022/03/30 06:19:24;;;;;;;22.40;9.30;;;15.20;86.90;;;;;;5079713;28;20035;-47
2022/03/30 06:21:51;;;;;;;21.50;8.77;;;15.30;85.70;;;;;;5088966;28;20142;-43
2022/03/30 06:24:17;;;;;;;24.52;7.72;;;15.40;84.50;;;;;;5075815;28;20037;-45
2022/03/30 06:26:43;;;;;;;25.58;9.50;;;15.50;84.20;;;;;;5072775;28;20838;-43
2022/03/30 06:29:09;;;;;;;17.02;5.90;;;15.70;85.20;;;;;;5077384;28;20036;-42
2022/03/30 06:31:35;;;;;;;12.32;5.30;;;15.80;84.80;;;;;;5072342;28;20025;-46
2022/03/30 06:34:02;;;;;;;14.95;4.93;;;16.00;84.00;;;;;;5073523;28;20037;-43
2022/03/30 06:36:29;;;;;;;19.35;6.05;;;15.70;84.40;;;;;;5075171;28;20033;-46
2022/03/30 06:38:55;;;;;;;16.60;4.45;;;15.60;84.70;;;;;;5073237;28;20021;-43
2022/03/30 06:41:21;;;;;;;18.40;5.00;;;15.50;85.10;;;;;;5076355;28;20024;-46
2022/03/30 06:43:47;;;;;;;24.67;9.75;;;15.50;84.90;;;;;;5075800;28;20063;-45
2022/03/30 06:46:14;;;;;;;18.85;6.35;;;15.70;84.70;;;;;;5074958;28;20075;-43
2022/03/30 06:48:40;;;;;;;17.35;8.07;;;16.00;83.50;;;;;;5074421;28;20024;-43
2022/03/30 06:51:06;;;;;;;16.02;4.60;;;16.20;80.60;;;;;;5070935;28;20103;-45
2022/03/30 06:53:32;;;;;;;17.58;5.97;;;16.50;81.80;;;;;;5076177;28;20115;-46
2022/03/30 06:55:58;;;;;;;18.70;7.00;;;16.70;79.60;;;;;;5072508;28;20044;-42
2022/03/30 06:58:24;;;;;;;13.60;4.72;;;16.80;79.20;;;;;;5071226;28;20482;-44
2022/03/30 07:00:50;;;;;;;16.38;6.80;;;17.00;79.60;;;;;;5071976;28;20039;-44
2022/03/30 07:03:16;;;;;;;17.45;5.07;;;17.00;78.40;;;;;;5069732;28;20108;-45
2022/03/30 07:05:42;;;;;;;16.63;5.10;;;17.00;78.80;;;;;;5075250;28;20059;-44
2022/03/30 07:10:52;;;;;;;17.40;5.15;;;17.50;79.20;;;;;;5072945;28;20050;-42
2022/03/30 07:13:19;;;;;;;19.17;5.10;;;17.60;78.10;;;;;;5076239;28;20111;-42
2022/03/30 07:15:45;;;;;;;14.10;5.28;;;17.70;78.70;;;;;;5075582;28;20441;-44
2022/03/30 07:18:13;;;;;;;17.05;5.55;;;17.70;78.00;;;;;;5074937;28;20111;-44
2022/03/30 07:20:39;;;;;;;15.43;4.63;;;18.00;86.00;;;;;;5073552;28;20033;-45
2022/03/30 07:23:05;;;;;;;14.85;5.35;;;18.10;79.20;;;;;;5074467;28;20438;-45
2022/03/30 07:25:31;;;;;;;12.90;5.10;;;18.40;80.20;;;;;;5073277;28;20549;-45
2022/03/30 07:27:59;;;;;;;26.88;9.35;;;18.50;90.00;;;;;;5053949;28;20040;-44
2022/03/30 07:30:26;;;;;;;16.65;6.50;;;18.50;78.90;;;;;;5073966;28;20066;-45
2022/03/30 07:32:53;;;;;;;16.33;6.80;;;18.60;77.90;;;;;;5073901;28;20025;-45
2022/03/30 07:35:23;;;;;;;15.82;4.47;;;18.80;88.00;;;;;;5071488;28;20036;-44
2022/03/30 07:37:49;;;;;;;21.50;5.20;;;18.90;86.00;;;;;;5072575;28;20480;-43
2022/03/30 07:40:18;;;;;;;26.90;7.10;;;18.90;83.50;;;;;;5074879;28;20082;-44
2022/03/30 07:42:46;;;;;;;11.60;4.72;;;18.90;83.70;;;;;;5074657;28;20452;-44
2022/03/30 07:45:12;;;;;;;17.98;5.07;;;18.90;84.50;;;;;;5072665;28;20029;-43
2022/03/30 07:47:38;;;;;;;14.95;4.85;;;18.90;85.70;;;;;;5074967;28;20031;-46
2022/03/30 07:50:06;;;;;;;14.38;4.53;;;18.90;85.10;;;;;;5076453;28;20391;-42
2022/03/30 07:52:32;;;;;;;13.52;4.53;;;19.00;83.90;;;;;;5073662;28;20096;-46
2022/03/30 07:54:58;;;;;;;18.52;5.25;;;19.00;81.60;;;;;;5075255;28;20325;-44
2022/03/30 07:57:27;;;;;;;17.15;4.70;;;19.00;82.80;;;;;;5081155;28;20477;-42
2022/03/30 07:59:58;;;;;;;19.95;5.35;;;19.00;89.10;;;;;;5073617;28;20100;-43
2022/03/30 08:02:25;;;;;;;13.15;3.80;;;19.10;89.70;;;;;;5073979;28;20034;-42
2022/03/30 08:04:51;;;;;;;9.57;4.07;;;19.10;90.50;;;;;;5075393;28;20031;-41
2022/03/30 08:07:18;;;;;;;17.60;4.68;;;19.10;90.20;;;;;;5075448;28;20448;-43
2022/03/30 08:12:48;;;;;;;17.10;5.00;;;;;;;;;;5076852;28;20461;-44
2022/03/30 08:15:14;;;;;;;13.18;3.47;;;19.10;95.60;;;;;;5052547;28;20051;-44
2022/03/30 08:17:41;;;;;;;14.18;4.88;;;19.20;79.90;;;;;;5072103;28;20017;-44
2022/03/30 08:20:08;;;;;;;16.17;4.60;;;;;;;;;;5071808;28;20048;-47
2022/03/30 08:22:34;;;;;;;15.48;3.53;;;19.30;85.30;;;;;;5071516;28;20135;-43
2022/03/30 08:25:10;;;;;;;12.90;2.85;;;19.30;78.80;;;;;;5072055;28;20123;-43
2022/03/30 08:27:37;;;;;;;11.38;3.65;;;19.20;72.90;;;;;;5068990;28;20498;-44
2022/03/30 08:30:05;;;;;;;10.48;3.75;;;19.30;75.30;;;;;;5071724;28;20036;-45
2022/03/30 08:32:32;;;;;;;15.07;3.97;;;19.50;73.80;;;;;;5070418;28;20036;-43
2022/03/30 08:34:58;;;;;;;12.20;3.05;;;19.60;74.40;;;;;;5068833;28;20040;-42
2022/03/30 08:37:24;;;;;;;16.92;5.57;;;19.80;74.00;;;;;;5088374;28;20040;-42
2022/03/30 08:39:51;;;;;;;24.55;6.28;;;20.10;75.10;;;;;;5071401;28;20116;-44
2022/03/30 08:42:17;;;;;;;10.65;4.00;;;20.30;75.10;;;;;;5072209;28;20036;-40
2022/03/30 08:44:43;;;;;;;7.88;3.40;;;20.40;74.00;;;;;;5069476;28;20024;-42
2022/03/30 08:47:11;;;;;;;11.38;3.47;;;20.40;73.10;;;;;;5071539;28;20025;-43
2022/03/30 08:49:38;;;;;;;13.63;4.80;;;20.50;72.30;;;;;;5068719;28;20028;-43
2022/03/30 08:52:06;;;;;;;8.23;3.50;;;20.50;72.80;;;;;;5071918;28;20041;-44
2022/03/30 08:54:33;;;;;;;11.63;3.05;;;20.50;71.60;;;;;;5072436;28;20043;-43
2022/03/30 08:56:59;;;;;;;14.98;4.78;;;20.50;71.60;;;;;;5073405;28;20064;-41
2022/03/30 08:59:25;;;;;;;9.00;3.80;;;20.60;72.90;;;;;;5072193;28;20162;-42
2022/03/30 09:01:57;;;;;;;7.22;3.10;;;20.60;72.20;;;;;;5073871;28;20032;-42
2022/03/30 09:04:25;;;;;;;8.85;3.67;;;20.40;71.80;;;;;;5071573;28;20041;-43
2022/03/30 09:06:53;;;;;;;16.75;5.15;;;20.40;72.30;;;;;;5073445;28;20185;-43
2022/03/30 09:09:28;;;;;;;25.70;6.45;;;20.50;73.30;;;;;;5092661;28;20044;-42
2022/03/30 09:11:55;;;;;;;10.13;4.28;;;20.40;72.60;;;;;;5068935;28;20039;-41
2022/03/30 09:14:24;;;;;;;18.38;5.15;;;20.40;72.00;;;;;;5078755;28;20078;-45
2022/03/30 09:16:53;;;;;;;14.23;4.22;;;20.40;73.40;;;;;;5073001;28;20071;-41
2022/03/30 09:19:22;;;;;;;14.60;4.63;;;20.40;72.50;;;;;;5079885;28;20040;-44
2022/03/30 09:21:55;;;;;;;7.72;3.40;;;20.40;72.60;;;;;;5076957;28;20079;-44
2022/03/30 09:24:27;;;;;;;13.18;4.75;;;20.30;71.90;;;;;;5078360;28;20620;-42
2022/03/30 09:26:54;;;;;;;12.40;4.03;;;20.40;73.60;;;;;;5072640;28;20074;-42
2022/03/30 09:29:26;;;;;;;13.80;3.67;;;20.50;72.50;;;;;;5060670;28;20044;-43
2022/03/30 09:31:52;;;;;;;15.77;4.25;;;20.60;73.70;;;;;;5077960;28;20108;-42
2022/03/30 09:34:19;;;;;;;10.38;4.25;;;20.60;72.20;;;;;;5079512;28;20621;-43
2022/03/30 09:36:49;;;;;;;10.65;4.05;;;20.60;72.50;;;;;;5076180;28;20032;-42
2022/03/30 09:39:30;;;;;;;10.80;3.63;;;20.60;70.90;;;;;;5075389;28;20463;-42
2022/03/30 09:41:58;;;;;;;14.57;4.18;;;20.70;72.30;;;;;;5079778;28;20033;-44
2022/03/30 09:44:26;;;;;;;11.40;4.47;;;20.60;71.00;;;;;;5078338;28;20066;-42
2022/03/30 09:46:55;;;;;;;17.98;4.68;;;20.70;72.30;;;;;;5078953;28;20503;-42
2022/03/30 09:49:32;;;;;;;15.93;3.90;;;20.70;72.00;;;;;;5077499;28;20029;-43
2022/03/30 09:51:57;;;;;;;13.27;3.60;;;20.80;72.10;;;;;;5083959;28;20036;-43
2022/03/30 09:54:53;;;;;;;13.05;4.47;;;21.00;71.90;;;;;;5078962;28;20490;-43
2022/03/30 09:57:40;;;;;;;13.30;6.50;;;21.10;71.20;;;;;;5077594;28;20045;-43
2022/03/30 10:00:15;;;;;;;10.43;4.30;;;21.30;70.00;;;;;;5079159;28;20040;-42
2022/03/30 10:02:43;;;;;;;10.40;3.42;;;21.30;70.60;;;;;;5070079;28;20032;-44
2022/03/30 10:05:14;;;;;;;9.20;3.33;;;21.40;69.80;;;;;;5073518;28;20043;-43
2022/03/30 10:07:40;;;;;;;21.30;10.30;;;21.40;69.80;;;;;;5074887;28;20040;-42
2022/03/30 10:10:09;;;;;;;30.17;6.53;;;21.40;69.40;;;;;;5070460;28;20109;-45
2022/03/30 10:12:35;;;;;;;12.07;4.45;;;21.50;69.70;;;;;;5010571;28;20034;-46
2022/03/30 10:15:02;;;;;;;13.60;4.65;;;21.50;71.60;;;;;;5005991;28;20532;-44
2022/03/30 10:17:31;;;;;;;15.35;5.32;;;21.40;77.10;;;;;;4959717;28;20045;-47
2022/03/30 10:19:58;;;;;;;13.93;5.75;;;21.30;71.20;;;;;;4992183;28;20042;-41
2022/03/30 10:22:50;;;;;;;15.15;5.80;;;21.40;71.20;;;;;;4971137;28;20444;-48
2022/03/30 10:25:33;;;;;;;18.10;5.13;;;21.40;71.00;;;;;;4953370;28;20035;-40
2022/03/30 10:28:10;;;;;;;;;;;21.30;73.00;;;;;;4992658;28;20152;-40
2022/03/30 10:30:36;;;;;;;9.07;3.95;;;21.40;93.10;;;;;;4990839;28;20044;-44
2022/03/30 10:33:03;;;;;;;17.95;4.70;;;21.30;84.00;;;;;;4960175;28;20054;-43
2022/03/30 10:35:38;;;;;;;9.30;3.88;;;21.20;71.10;;;;;;4997962;28;20086;-39
2022/03/30 10:38:04;;;;;;;23.02;5.38;;;21.20;70.60;;;;;;5005570;28;20161;-39
2022/03/30 10:40:30;;;;;;;14.52;5.05;;;21.20;72.80;;;;;;4990258;28;21297;-43
2022/03/30 10:43:00;;;;;;;23.17;7.57;;;21.20;72.20;;;;;;4979575;28;20496;-41
2022/03/30 10:45:28;;;;;;;15.13;5.05;;;21.20;73.20;;;;;;5014998;28;20044;-41
2022/03/30 10:48:13;;;;;;;20.67;4.85;;;21.20;77.90;;;;;;5054139;28;20033;-41
2022/03/30 10:50:46;;;;;;;11.88;4.18;;;21.10;79.00;;;;;;5073827;28;20097;-41
2022/03/30 10:53:30;;;;;;;12.68;5.15;;;21.10;73.20;;;;;;5084941;28;20133;-44
2022/03/30 10:56:21;;;;;;;23.50;8.63;;;21.10;79.30;;;;;;5078494;28;20044;-44
2022/03/30 10:58:52;;;;;;;20.10;5.53;;;21.20;74.20;;;;;;5067677;28;20071;-43
2022/03/30 11:01:22;;;;;;;17.65;7.20;;;21.30;72.50;;;;;;5075266;28;20098;-46
2022/03/30 11:04:03;;;;;;;16.75;7.18;;;21.30;72.50;;;;;;5073987;28;20029;-44
2022/03/30 11:06:30;;;;;;;14.52;5.55;;;21.50;72.50;;;;;;5074227;28;20472;-43
2022/03/30 11:09:01;;;;;;;14.07;4.00;;;21.60;72.30;;;;;;5073774;28;20035;-43
2022/03/30 11:11:42;;;;;;;11.85;3.80;;;21.60;70.60;;;;;;5072376;28;20040;-42
2022/03/30 11:14:26;;;;;;;9.98;4.18;;;21.60;69.80;;;;;;5075256;28;20046;-43
2022/03/30 11:16:58;;;;;;;28.35;10.43;;;21.80;79.30;;;;;;5071861;28;20040;-45
2022/03/30 11:19:31;;;;;;;30.77;10.05;;;21.80;69.20;;;;;;5072960;28;20036;-43
2022/03/30 11:22:11;;;;;;;12.40;5.13;;;21.80;69.40;;;;;;5072395;28;20044;-43
2022/03/30 11:24:42;;;;;;;12.52;3.75;;;21.90;68.90;;;;;;5075239;28;20396;-44
2022/03/30 11:27:08;;;;;;;13.57;5.15;;;;;;;;;;5070067;28;20039;-42
2022/03/30 11:29:50;;;;;;;14.70;4.15;;;22.20;70.40;;;;;;5076206;28;20033;-43
2022/03/30 11:32:32;;;;;;;22.45;5.95;;;22.30;69.00;;;;;;5075349;28;20431;-42
2022/03/30 11:35:00;;;;;;;15.30;5.00;;;22.40;69.50;;;;;;5073552;28;20472;-44
2022/03/30 11:37:28;;;;;;;16.15;5.50;;;22.40;68.40;;;;;;5074631;28;20037;-43
2022/03/30 11:40:09;;;;;;;234.48;215.07;;;22.50;68.50;;;;;;5073352;28;20043;-42
2022/03/30 11:42:40;;;;;;;11.90;4.53;;;22.30;68.40;;;;;;5072595;28;20040;-42
2022/03/30 11:45:21;;;;;;;13.55;5.30;;;22.10;68.30;;;;;;5075740;28;20317;-41
2022/03/30 11:48:00;;;;;;;14.02;5.28;;;22.10;68.80;;;;;;5070438;28;20036;-42
2022/03/30 11:50:37;;;;;;;11.18;4.47;;;22.20;68.10;;;;;;5073496;28;20047;-42
2022/03/30 11:53:04;;;;;;;14.82;5.05;;;22.10;68.20;;;;;;5073199;28;20527;-42
2022/03/30 11:55:35;;;;;;;14.98;5.28;;;21.30;69.00;;;;;;5074319;28;20032;-45
2022/03/30 11:58:01;;;;;;;18.70;5.95;;;21.30;69.70;;;;;;5074550;28;20032;-43
2022/03/30 12:00:28;;;;;;;11.88;3.65;;;21.50;69.70;;;;;;5073427;28;20032;-41
2022/03/30 12:02:56;;;;;;;26.83;8.60;;;21.60;69.00;;;;;;5073205;28;20039;-42
2022/03/30 12:05:22;;;;;;;16.42;6.00;;;21.80;69.80;;;;;;5087253;28;20040;-41
2022/03/30 12:08:00;;;;;;;14.77;5.90;;;21.60;69.80;;;;;;5073819;28;20126;-43
2022/03/30 12:10:31;;;;;;;23.83;6.13;;;21.70;68.90;;;;;;5070323;28;20036;-42
2022/03/30 12:12:58;;;;;;;13.20;5.93;;;21.70;69.40;;;;;;5070265;28;20043;-41
2022/03/30 12:15:24;;;;;;;11.93;4.75;;;21.70;69.80;;;;;;5070378;28;20140;-43
2022/03/30 12:17:56;;;;;;;21.52;7.47;;;21.80;69.30;;;;;;5068276;28;20040;-40
2022/03/30 12:20:28;;;;;;;19.63;7.28;;;21.90;69.10;;;;;;5068269;28;20119;-40
2022/03/30 12:23:15;;;;;;;19.27;4.80;;;21.80;68.30;;;;;;5071464;28;20056;-43
2022/03/30 12:25:42;;;;;;;14.38;4.97;;;21.80;69.50;;;;;;5072825;28;20432;-43
2022/03/30 12:28:08;;;;;;;10.52;3.75;;;21.70;69.00;;;;;;5054484;28;20044;-43
2022/03/30 12:30:36;;;;;;;9.95;4.07;;;20.90;70.20;;;;;;5029071;28;20044;-43
2022/03/30 12:33:02;;;;;;;12.43;4.13;;;20.60;70.60;;;;;;5067608;28;20045;-44
2022/03/30 12:35:35;;;;;;;18.00;5.07;;;20.60;71.20;;;;;;5060462;28;20574;-43
2022/03/30 12:38:05;;;;;;;8.63;4.28;;;20.70;70.30;;;;;;5084453;28;20139;-43
2022/03/30 12:40:38;;;;;;;15.25;5.07;;;20.90;70.30;;;;;;5042201;28;20034;-43
2022/03/30 12:43:04;;;;;;;13.15;4.30;;;20.80;70.20;;;;;;5079021;28;20041;-43
2022/03/30 12:45:30;;;;;;;15.18;6.18;;;20.60;70.80;;;;;;5081895;28;20549;-43
2022/03/30 12:47:59;;;;;;;12.82;4.90;;;21.00;70.90;;;;;;5077736;28;20027;-43
2022/03/30 12:50:33;;;;;;;20.75;6.07;;;21.00;70.30;;;;;;5076998;28;20039;-43